sensor_id;sensor_type;location;lat;lon;timestamp;P1;durP1;ratioP1;P2;durP2;ratioP2
44189;SDS011;29856;52.144;5.430;2023-10-08T00:00:48;28.25;;;6.85;;
44189;SDS011;29856;52.144;5.430;2023-10-08T00:03:14;25.60;;;7.15;;
44189;SDS011;29856;52.144;5.430;2023-10-08T00:05:40;29.35;;;6.43;;
44189;SDS011;29856;52.144;5.430;2023-10-08T00:08:06;26.20;;;6.40;;
44189;SDS011;29856;52.144;5.430;2023-10-08T00:10:38;27.95;;;7.18;;
44189;SDS011;29856;52.144;5.430;2023-10-08T00:13:04;25.85;;;6.85;;
44189;SDS011;29856;52.144;5.430;2023-10-08T00:15:30;32.78;;;7.05;;
44189;SDS011;29856;52.144;5.430;2023-10-08T00:17:56;32.00;;;7.90;;
44189;SDS011;29856;52.144;5.430;2023-10-08T00:20:21;22.83;;;5.95;;
44189;SDS011;29856;52.144;5.430;2023-10-08T00:22:47;32.60;;;7.05;;
44189;SDS011;29856;52.144;5.430;2023-10-08T00:25:12;27.92;;;6.80;;
44189;SDS011;29856;52.144;5.430;2023-10-08T00:27:37;24.48;;;6.53;;
44189;SDS011;29856;52.144;5.430;2023-10-08T00:30:03;33.13;;;7.15;;
44189;SDS011;29856;52.144;5.430;2023-10-08T00:32:29;32.83;;;7.55;;
44189;SDS011;29856;52.144;5.430;2023-10-08T00:34:54;26.10;;;6.40;;
44189;SDS011;29856;52.144;5.430;2023-10-08T00:37:20;29.67;;;6.88;;
44189;SDS011;29856;52.144;5.430;2023-10-08T00:39:45;24.17;;;6.35;;
44189;SDS011;29856;52.144;5.430;2023-10-08T00:42:11;24.02;;;6.45;;
44189;SDS011;29856;52.144;5.430;2023-10-08T00:44:36;26.35;;;6.53;;
44189;SDS011;29856;52.144;5.430;2023-10-08T00:47:02;30.90;;;7.22;;
44189;SDS011;29856;52.144;5.430;2023-10-08T00:49:29;24.98;;;6.30;;
44189;SDS011;29856;52.144;5.430;2023-10-08T00:51:55;28.10;;;6.22;;
44189;SDS011;29856;52.144;5.430;2023-10-08T00:54:23;22.95;;;6.57;;
44189;SDS011;29856;52.144;5.430;2023-10-08T00:56:49;18.10;;;5.70;;
44189;SDS011;29856;52.144;5.430;2023-10-08T00:59:15;22.65;;;6.57;;
44189;SDS011;29856;52.144;5.430;2023-10-08T01:01:44;30.05;;;6.97;;
44189;SDS011;29856;52.144;5.430;2023-10-08T01:04:10;32.10;;;7.35;;
44189;SDS011;29856;52.144;5.430;2023-10-08T01:06:40;23.17;;;6.63;;
44189;SDS011;29856;52.144;5.430;2023-10-08T01:09:06;27.42;;;6.40;;
44189;SDS011;29856;52.144;5.430;2023-10-08T01:11:31;18.50;;;6.35;;
44189;SDS011;29856;52.144;5.430;2023-10-08T01:13:57;24.88;;;6.88;;
44189;SDS011;29856;52.144;5.430;2023-10-08T01:16:24;22.33;;;6.53;;
44189;SDS011;29856;52.144;5.430;2023-10-08T01:18:50;27.42;;;6.53;;
44189;SDS011;29856;52.144;5.430;2023-10-08T01:21:17;24.98;;;7.30;;
44189;SDS011;29856;52.144;5.430;2023-10-08T01:23:42;21.13;;;6.35;;
44189;SDS011;29856;52.144;5.430;2023-10-08T01:26:09;28.15;;;7.10;;
44189;SDS011;29856;52.144;5.430;2023-10-08T01:28:35;28.20;;;6.45;;
44189;SDS011;29856;52.144;5.430;2023-10-08T01:31:01;21.17;;;6.00;;
44189;SDS011;29856;52.144;5.430;2023-10-08T01:33:26;20.38;;;5.60;;
44189;SDS011;29856;52.144;5.430;2023-10-08T01:35:52;21.48;;;6.65;;
44189;SDS011;29856;52.144;5.430;2023-10-08T01:38:18;25.58;;;6.70;;
44189;SDS011;29856;52.144;5.430;2023-10-08T01:40:43;21.25;;;6.05;;
44189;SDS011;29856;52.144;5.430;2023-10-08T01:43:09;19.92;;;5.88;;
44189;SDS011;29856;52.144;5.430;2023-10-08T01:45:37;21.23;;;6.40;;
44189;SDS011;29856;52.144;5.430;2023-10-08T01:48:03;28.85;;;6.82;;
44189;SDS011;29856;52.144;5.430;2023-10-08T01:50:28;28.88;;;7.22;;
44189;SDS011;29856;52.144;5.430;2023-10-08T01:52:54;25.63;;;6.93;;
44189;SDS011;29856;52.144;5.430;2023-10-08T01:55:20;34.88;;;8.10;;
44189;SDS011;29856;52.144;5.430;2023-10-08T01:57:46;32.60;;;8.13;;
44189;SDS011;29856;52.144;5.430;2023-10-08T02:00:12;35.58;;;7.50;;
44189;SDS011;29856;52.144;5.430;2023-10-08T02:02:38;27.55;;;6.75;;
44189;SDS011;29856;52.144;5.430;2023-10-08T02:05:04;38.40;;;7.72;;
44189;SDS011;29856;52.144;5.430;2023-10-08T02:07:29;25.38;;;8.10;;
44189;SDS011;29856;52.144;5.430;2023-10-08T02:09:55;31.60;;;8.10;;
44189;SDS011;29856;52.144;5.430;2023-10-08T02:12:20;39.53;;;8.77;;
44189;SDS011;29856;52.144;5.430;2023-10-08T02:14:46;23.40;;;7.82;;
44189;SDS011;29856;52.144;5.430;2023-10-08T02:17:11;31.15;;;7.68;;
44189;SDS011;29856;52.144;5.430;2023-10-08T02:19:37;37.00;;;8.90;;
44189;SDS011;29856;52.144;5.430;2023-10-08T02:22:02;28.17;;;7.80;;
44189;SDS011;29856;52.144;5.430;2023-10-08T02:24:28;34.47;;;7.82;;
44189;SDS011;29856;52.144;5.430;2023-10-08T02:26:54;30.77;;;7.65;;
44189;SDS011;29856;52.144;5.430;2023-10-08T02:29:26;30.67;;;6.97;;
44189;SDS011;29856;52.144;5.430;2023-10-08T02:31:53;36.05;;;8.23;;
44189;SDS011;29856;52.144;5.430;2023-10-08T02:34:19;35.75;;;8.38;;
44189;SDS011;29856;52.144;5.430;2023-10-08T02:36:44;39.95;;;8.82;;
44189;SDS011;29856;52.144;5.430;2023-10-08T02:39:10;27.05;;;8.77;;
44189;SDS011;29856;52.144;5.430;2023-10-08T02:41:35;31.65;;;8.07;;
44189;SDS011;29856;52.144;5.430;2023-10-08T02:44:01;31.13;;;8.02;;
44189;SDS011;29856;52.144;5.430;2023-10-08T02:46:26;28.35;;;7.25;;
44189;SDS011;29856;52.144;5.430;2023-10-08T02:48:52;30.48;;;7.40;;
44189;SDS011;29856;52.144;5.430;2023-10-08T02:51:18;32.28;;;8.57;;
44189;SDS011;29856;52.144;5.430;2023-10-08T02:53:43;31.05;;;9.25;;
44189;SDS011;29856;52.144;5.430;2023-10-08T02:56:09;26.33;;;7.80;;
44189;SDS011;29856;52.144;5.430;2023-10-08T02:58:35;33.60;;;8.63;;
44189;SDS011;29856;52.144;5.430;2023-10-08T03:01:00;27.65;;;8.52;;
44189;SDS011;29856;52.144;5.430;2023-10-08T03:03:26;29.98;;;8.27;;
44189;SDS011;29856;52.144;5.430;2023-10-08T03:05:52;26.50;;;8.48;;
44189;SDS011;29856;52.144;5.430;2023-10-08T03:08:17;28.20;;;9.63;;
44189;SDS011;29856;52.144;5.430;2023-10-08T03:10:44;44.25;;;10.63;;
44189;SDS011;29856;52.144;5.430;2023-10-08T03:13:10;26.60;;;7.95;;
44189;SDS011;29856;52.144;5.430;2023-10-08T03:15:35;21.52;;;7.85;;
44189;SDS011;29856;52.144;5.430;2023-10-08T03:18:01;31.08;;;8.90;;
44189;SDS011;29856;52.144;5.430;2023-10-08T03:20:26;35.17;;;9.32;;
44189;SDS011;29856;52.144;5.430;2023-10-08T03:22:52;27.35;;;9.40;;
44189;SDS011;29856;52.144;5.430;2023-10-08T03:25:17;28.02;;;9.45;;
44189;SDS011;29856;52.144;5.430;2023-10-08T03:27:43;36.40;;;9.52;;
44189;SDS011;29856;52.144;5.430;2023-10-08T03:30:09;27.73;;;8.48;;
44189;SDS011;29856;52.144;5.430;2023-10-08T03:32:34;31.90;;;8.70;;
44189;SDS011;29856;52.144;5.430;2023-10-08T03:35:00;37.90;;;9.70;;
44189;SDS011;29856;52.144;5.430;2023-10-08T03:37:25;30.23;;;9.43;;
44189;SDS011;29856;52.144;5.430;2023-10-08T03:39:51;33.75;;;10.00;;
44189;SDS011;29856;52.144;5.430;2023-10-08T03:42:22;38.03;;;9.80;;
44189;SDS011;29856;52.144;5.430;2023-10-08T03:44:49;28.90;;;8.93;;
44189;SDS011;29856;52.144;5.430;2023-10-08T03:47:15;30.48;;;9.68;;
44189;SDS011;29856;52.144;5.430;2023-10-08T03:49:40;31.77;;;10.13;;
44189;SDS011;29856;52.144;5.430;2023-10-08T03:52:06;28.75;;;8.07;;
44189;SDS011;29856;52.144;5.430;2023-10-08T03:54:31;32.83;;;10.23;;
44189;SDS011;29856;52.144;5.430;2023-10-08T03:56:56;40.60;;;10.75;;
44189;SDS011;29856;52.144;5.430;2023-10-08T03:59:22;39.58;;;10.00;;
44189;SDS011;29856;52.144;5.430;2023-10-08T04:01:47;36.33;;;8.60;;
44189;SDS011;29856;52.144;5.430;2023-10-08T04:04:13;32.00;;;8.10;;
44189;SDS011;29856;52.144;5.430;2023-10-08T04:06:38;33.50;;;7.88;;
44189;SDS011;29856;52.144;5.430;2023-10-08T04:09:04;32.05;;;7.43;;
44189;SDS011;29856;52.144;5.430;2023-10-08T04:11:30;25.45;;;7.97;;
44189;SDS011;29856;52.144;5.430;2023-10-08T04:13:56;28.73;;;7.72;;
44189;SDS011;29856;52.144;5.430;2023-10-08T04:16:21;28.17;;;6.70;;
44189;SDS011;29856;52.144;5.430;2023-10-08T04:18:47;29.63;;;7.05;;
44189;SDS011;29856;52.144;5.430;2023-10-08T04:21:12;22.13;;;6.10;;
44189;SDS011;29856;52.144;5.430;2023-10-08T04:23:39;29.00;;;6.15;;
44189;SDS011;29856;52.144;5.430;2023-10-08T04:26:05;26.10;;;6.53;;
44189;SDS011;29856;52.144;5.430;2023-10-08T04:28:30;22.25;;;5.57;;
44189;SDS011;29856;52.144;5.430;2023-10-08T04:30:56;35.45;;;6.05;;
44189;SDS011;29856;52.144;5.430;2023-10-08T04:33:21;26.00;;;5.95;;
44189;SDS011;29856;52.144;5.430;2023-10-08T04:35:47;25.20;;;6.28;;
44189;SDS011;29856;52.144;5.430;2023-10-08T04:38:12;21.60;;;5.35;;
44189;SDS011;29856;52.144;5.430;2023-10-08T04:40:38;21.88;;;4.93;;
44189;SDS011;29856;52.144;5.430;2023-10-08T04:43:03;24.98;;;5.43;;
44189;SDS011;29856;52.144;5.430;2023-10-08T04:45:29;14.95;;;4.70;;
44189;SDS011;29856;52.144;5.430;2023-10-08T04:47:54;21.10;;;5.10;;
44189;SDS011;29856;52.144;5.430;2023-10-08T04:50:19;20.90;;;5.72;;
44189;SDS011;29856;52.144;5.430;2023-10-08T04:52:45;23.17;;;5.35;;
44189;SDS011;29856;52.144;5.430;2023-10-08T04:55:10;18.95;;;6.15;;
44189;SDS011;29856;52.144;5.430;2023-10-08T04:57:36;18.77;;;5.47;;
44189;SDS011;29856;52.144;5.430;2023-10-08T05:00:02;28.40;;;6.55;;
44189;SDS011;29856;52.144;5.430;2023-10-08T05:02:28;19.73;;;6.40;;
44189;SDS011;29856;52.144;5.430;2023-10-08T05:04:53;23.45;;;6.10;;
44189;SDS011;29856;52.144;5.430;2023-10-08T05:07:19;24.33;;;5.88;;
44189;SDS011;29856;52.144;5.430;2023-10-08T05:09:45;14.05;;;5.15;;
44189;SDS011;29856;52.144;5.430;2023-10-08T05:12:10;26.15;;;6.93;;
44189;SDS011;29856;52.144;5.430;2023-10-08T05:14:36;22.25;;;6.18;;
44189;SDS011;29856;52.144;5.430;2023-10-08T05:17:02;25.27;;;7.47;;
44189;SDS011;29856;52.144;5.430;2023-10-08T05:19:29;21.17;;;6.65;;
44189;SDS011;29856;52.144;5.430;2023-10-08T05:21:55;23.50;;;5.90;;
44189;SDS011;29856;52.144;5.430;2023-10-08T05:24:20;20.88;;;6.82;;
44189;SDS011;29856;52.144;5.430;2023-10-08T05:26:45;27.58;;;7.00;;
44189;SDS011;29856;52.144;5.430;2023-10-08T05:29:11;19.85;;;7.80;;
44189;SDS011;29856;52.144;5.430;2023-10-08T05:31:36;21.50;;;7.22;;
44189;SDS011;29856;52.144;5.430;2023-10-08T05:34:02;16.65;;;6.15;;
44189;SDS011;29856;52.144;5.430;2023-10-08T05:36:28;15.02;;;5.22;;
44189;SDS011;29856;52.144;5.430;2023-10-08T05:38:54;13.60;;;4.10;;
44189;SDS011;29856;52.144;5.430;2023-10-08T05:41:20;15.57;;;4.95;;
44189;SDS011;29856;52.144;5.430;2023-10-08T05:43:45;15.65;;;4.20;;
44189;SDS011;29856;52.144;5.430;2023-10-08T05:46:14;14.23;;;4.47;;
44189;SDS011;29856;52.144;5.430;2023-10-08T05:48:40;10.77;;;3.70;;
44189;SDS011;29856;52.144;5.430;2023-10-08T05:51:06;12.80;;;3.83;;
44189;SDS011;29856;52.144;5.430;2023-10-08T05:53:32;8.88;;;3.15;;
44189;SDS011;29856;52.144;5.430;2023-10-08T05:56:04;15.25;;;2.70;;
44189;SDS011;29856;52.144;5.430;2023-10-08T05:58:29;12.23;;;3.03;;
44189;SDS011;29856;52.144;5.430;2023-10-08T06:00:55;9.90;;;2.97;;
44189;SDS011;29856;52.144;5.430;2023-10-08T06:03:20;11.07;;;2.72;;
44189;SDS011;29856;52.144;5.430;2023-10-08T06:05:46;7.07;;;2.40;;
44189;SDS011;29856;52.144;5.430;2023-10-08T06:08:11;10.68;;;2.50;;
44189;SDS011;29856;52.144;5.430;2023-10-08T06:10:37;10.30;;;2.33;;
44189;SDS011;29856;52.144;5.430;2023-10-08T06:13:12;8.70;;;2.50;;
44189;SDS011;29856;52.144;5.430;2023-10-08T06:15:48;9.88;;;2.08;;
44189;SDS011;29856;52.144;5.430;2023-10-08T06:20:41;7.22;;;2.05;;
44189;SDS011;29856;52.144;5.430;2023-10-08T06:23:07;5.43;;;2.05;;
44189;SDS011;29856;52.144;5.430;2023-10-08T06:25:33;10.15;;;2.25;;
44189;SDS011;29856;52.144;5.430;2023-10-08T06:27:58;9.57;;;3.15;;
44189;SDS011;29856;52.144;5.430;2023-10-08T06:30:24;8.48;;;2.00;;
44189;SDS011;29856;52.144;5.430;2023-10-08T06:32:50;6.28;;;2.20;;
44189;SDS011;29856;52.144;5.430;2023-10-08T06:35:15;10.88;;;2.60;;
44189;SDS011;29856;52.144;5.430;2023-10-08T06:37:41;7.30;;;2.35;;
44189;SDS011;29856;52.144;5.430;2023-10-08T06:40:07;9.80;;;2.25;;
44189;SDS011;29856;52.144;5.430;2023-10-08T06:42:33;6.63;;;2.58;;
44189;SDS011;29856;52.144;5.430;2023-10-08T06:44:58;6.20;;;1.88;;
44189;SDS011;29856;52.144;5.430;2023-10-08T06:47:24;5.28;;;2.03;;
44189;SDS011;29856;52.144;5.430;2023-10-08T06:49:49;5.47;;;1.80;;
44189;SDS011;29856;52.144;5.430;2023-10-08T06:52:15;5.63;;;1.88;;
44189;SDS011;29856;52.144;5.430;2023-10-08T06:54:40;6.82;;;1.95;;
44189;SDS011;29856;52.144;5.430;2023-10-08T06:57:06;5.10;;;1.83;;
44189;SDS011;29856;52.144;5.430;2023-10-08T06:59:31;6.00;;;2.15;;
44189;SDS011;29856;52.144;5.430;2023-10-08T07:01:57;3.65;;;1.75;;
44189;SDS011;29856;52.144;5.430;2023-10-08T07:04:22;5.40;;;2.08;;
44189;SDS011;29856;52.144;5.430;2023-10-08T07:06:48;3.67;;;2.10;;
44189;SDS011;29856;52.144;5.430;2023-10-08T07:09:13;3.58;;;1.92;;
44189;SDS011;29856;52.144;5.430;2023-10-08T07:11:39;2.28;;;1.90;;
44189;SDS011;29856;52.144;5.430;2023-10-08T07:14:05;2.83;;;2.00;;
44189;SDS011;29856;52.144;5.430;2023-10-08T07:16:31;3.72;;;2.22;;
44189;SDS011;29856;52.144;5.430;2023-10-08T07:18:56;3.38;;;2.55;;
44189;SDS011;29856;52.144;5.430;2023-10-08T07:21:22;4.03;;;2.53;;
44189;SDS011;29856;52.144;5.430;2023-10-08T07:23:47;2.70;;;2.50;;
44189;SDS011;29856;52.144;5.430;2023-10-08T07:26:13;3.03;;;2.78;;
44189;SDS011;29856;52.144;5.430;2023-10-08T07:28:41;3.30;;;2.85;;
44189;SDS011;29856;52.144;5.430;2023-10-08T07:31:13;4.28;;;2.97;;
44189;SDS011;29856;52.144;5.430;2023-10-08T07:38:40;4.88;;;3.50;;
44189;SDS011;29856;52.144;5.430;2023-10-08T07:41:06;5.53;;;3.25;;
44189;SDS011;29856;52.144;5.430;2023-10-08T07:43:32;3.22;;;2.90;;
44189;SDS011;29856;52.144;5.430;2023-10-08T07:45:58;3.42;;;2.70;;
44189;SDS011;29856;52.144;5.430;2023-10-08T07:48:23;4.70;;;3.63;;
44189;SDS011;29856;52.144;5.430;2023-10-08T07:50:49;4.13;;;3.38;;
44189;SDS011;29856;52.144;5.430;2023-10-08T07:53:14;4.97;;;3.10;;
44189;SDS011;29856;52.144;5.430;2023-10-08T07:55:40;3.63;;;3.17;;
44189;SDS011;29856;52.144;5.430;2023-10-08T07:58:05;3.65;;;3.00;;
44189;SDS011;29856;52.144;5.430;2023-10-08T08:00:31;5.75;;;3.58;;
44189;SDS011;29856;52.144;5.430;2023-10-08T08:02:56;5.72;;;3.05;;
44189;SDS011;29856;52.144;5.430;2023-10-08T08:05:21;7.85;;;3.20;;
44189;SDS011;29856;52.144;5.430;2023-10-08T08:07:47;3.03;;;2.83;;
44189;SDS011;29856;52.144;5.430;2023-10-08T08:10:12;5.05;;;3.10;;
44189;SDS011;29856;52.144;5.430;2023-10-08T08:12:38;3.17;;;2.88;;
44189;SDS011;29856;52.144;5.430;2023-10-08T08:15:03;3.22;;;2.42;;
44189;SDS011;29856;52.144;5.430;2023-10-08T08:17:29;3.15;;;2.85;;
44189;SDS011;29856;52.144;5.430;2023-10-08T08:19:55;3.35;;;2.85;;
44189;SDS011;29856;52.144;5.430;2023-10-08T08:22:21;5.07;;;3.10;;
44189;SDS011;29856;52.144;5.430;2023-10-08T08:24:50;4.03;;;2.67;;
44189;SDS011;29856;52.144;5.430;2023-10-08T08:27:16;8.43;;;3.78;;
44189;SDS011;29856;52.144;5.430;2023-10-08T08:29:41;4.93;;;2.90;;
44189;SDS011;29856;52.144;5.430;2023-10-08T08:32:07;2.80;;;2.60;;
44189;SDS011;29856;52.144;5.430;2023-10-08T08:34:32;4.63;;;2.58;;
44189;SDS011;29856;52.144;5.430;2023-10-08T08:36:58;3.70;;;2.35;;
44189;SDS011;29856;52.144;5.430;2023-10-08T08:39:23;3.03;;;2.65;;
44189;SDS011;29856;52.144;5.430;2023-10-08T08:41:49;4.68;;;2.95;;
44189;SDS011;29856;52.144;5.430;2023-10-08T08:44:17;5.70;;;2.60;;
44189;SDS011;29856;52.144;5.430;2023-10-08T08:46:42;5.03;;;2.72;;
44189;SDS011;29856;52.144;5.430;2023-10-08T08:49:10;5.25;;;2.50;;
44189;SDS011;29856;52.144;5.430;2023-10-08T08:51:35;2.90;;;2.40;;
44189;SDS011;29856;52.144;5.430;2023-10-08T08:54:01;5.20;;;2.55;;
44189;SDS011;29856;52.144;5.430;2023-10-08T08:56:28;4.38;;;2.58;;
44189;SDS011;29856;52.144;5.430;2023-10-08T08:58:55;3.03;;;2.40;;
44189;SDS011;29856;52.144;5.430;2023-10-08T09:01:22;5.22;;;3.03;;
44189;SDS011;29856;52.144;5.430;2023-10-08T09:03:47;4.13;;;2.85;;
44189;SDS011;29856;52.144;5.430;2023-10-08T09:06:13;4.35;;;2.45;;
44189;SDS011;29856;52.144;5.430;2023-10-08T09:08:38;4.35;;;2.55;;
44189;SDS011;29856;52.144;5.430;2023-10-08T09:11:05;3.08;;;2.53;;
44189;SDS011;29856;52.144;5.430;2023-10-08T09:13:31;3.83;;;2.42;;
44189;SDS011;29856;52.144;5.430;2023-10-08T09:15:57;5.30;;;2.72;;
44189;SDS011;29856;52.144;5.430;2023-10-08T09:18:47;4.38;;;2.80;;
44189;SDS011;29856;52.144;5.430;2023-10-08T09:21:14;3.33;;;2.70;;
44189;SDS011;29856;52.144;5.430;2023-10-08T09:23:40;4.85;;;2.58;;
44189;SDS011;29856;52.144;5.430;2023-10-08T09:26:07;5.72;;;3.08;;
44189;SDS011;29856;52.144;5.430;2023-10-08T09:28:32;5.70;;;2.65;;
44189;SDS011;29856;52.144;5.430;2023-10-08T09:30:58;5.38;;;3.00;;
44189;SDS011;29856;52.144;5.430;2023-10-08T09:33:24;6.85;;;2.83;;
44189;SDS011;29856;52.144;5.430;2023-10-08T09:35:49;5.43;;;2.92;;
44189;SDS011;29856;52.144;5.430;2023-10-08T09:38:17;6.38;;;3.05;;
44189;SDS011;29856;52.144;5.430;2023-10-08T09:40:42;5.25;;;2.50;;
44189;SDS011;29856;52.144;5.430;2023-10-08T09:43:12;7.03;;;3.33;;
44189;SDS011;29856;52.144;5.430;2023-10-08T09:45:38;5.80;;;3.60;;
44189;SDS011;29856;52.144;5.430;2023-10-08T09:48:10;4.45;;;3.22;;
44189;SDS011;29856;52.144;5.430;2023-10-08T09:50:36;5.97;;;2.90;;
44189;SDS011;29856;52.144;5.430;2023-10-08T09:53:08;6.05;;;2.92;;
44189;SDS011;29856;52.144;5.430;2023-10-08T09:55:35;4.88;;;2.90;;
44189;SDS011;29856;52.144;5.430;2023-10-08T09:58:01;3.63;;;3.22;;
44189;SDS011;29856;52.144;5.430;2023-10-08T10:00:27;6.30;;;3.10;;
44189;SDS011;29856;52.144;5.430;2023-10-08T10:02:55;4.80;;;2.92;;
44189;SDS011;29856;52.144;5.430;2023-10-08T10:05:27;6.75;;;3.00;;
44189;SDS011;29856;52.144;5.430;2023-10-08T10:07:57;5.95;;;2.92;;
44189;SDS011;29856;52.144;5.430;2023-10-08T10:10:26;3.33;;;3.03;;
44189;SDS011;29856;52.144;5.430;2023-10-08T10:12:56;3.35;;;3.03;;
44189;SDS011;29856;52.144;5.430;2023-10-08T10:15:23;4.93;;;3.42;;
44189;SDS011;29856;52.144;5.430;2023-10-08T10:17:48;5.35;;;3.47;;
44189;SDS011;29856;52.144;5.430;2023-10-08T10:20:13;4.55;;;3.38;;
44189;SDS011;29856;52.144;5.430;2023-10-08T10:22:39;6.25;;;3.10;;
44189;SDS011;29856;52.144;5.430;2023-10-08T10:25:05;4.88;;;3.25;;
44189;SDS011;29856;52.144;5.430;2023-10-08T10:27:32;4.65;;;3.13;;
44189;SDS011;29856;52.144;5.430;2023-10-08T10:30:04;5.57;;;3.40;;
44189;SDS011;29856;52.144;5.430;2023-10-08T10:32:30;4.15;;;3.30;;
44189;SDS011;29856;52.144;5.430;2023-10-08T10:34:55;4.47;;;3.63;;
44189;SDS011;29856;52.144;5.430;2023-10-08T10:37:21;6.32;;;3.60;;
44189;SDS011;29856;52.144;5.430;2023-10-08T10:39:50;4.07;;;3.72;;
44189;SDS011;29856;52.144;5.430;2023-10-08T10:42:16;4.88;;;3.22;;
44189;SDS011;29856;52.144;5.430;2023-10-08T10:44:41;3.42;;;3.13;;
44189;SDS011;29856;52.144;5.430;2023-10-08T10:47:07;4.88;;;3.85;;
44189;SDS011;29856;52.144;5.430;2023-10-08T10:49:32;6.50;;;3.65;;
44189;SDS011;29856;52.144;5.430;2023-10-08T10:51:58;4.45;;;3.70;;
44189;SDS011;29856;52.144;5.430;2023-10-08T10:54:24;6.35;;;3.63;;
44189;SDS011;29856;52.144;5.430;2023-10-08T10:56:50;4.10;;;3.70;;
44189;SDS011;29856;52.144;5.430;2023-10-08T10:59:16;4.03;;;3.55;;
44189;SDS011;29856;52.144;5.430;2023-10-08T11:01:44;4.60;;;3.95;;
44189;SDS011;29856;52.144;5.430;2023-10-08T11:04:10;5.97;;;4.03;;
44189;SDS011;29856;52.144;5.430;2023-10-08T11:06:36;4.57;;;4.00;;
44189;SDS011;29856;52.144;5.430;2023-10-08T11:09:01;5.35;;;4.80;;
44189;SDS011;29856;52.144;5.430;2023-10-08T11:11:27;4.03;;;3.72;;
44189;SDS011;29856;52.144;5.430;2023-10-08T11:13:57;5.10;;;3.85;;
44189;SDS011;29856;52.144;5.430;2023-10-08T11:16:23;5.00;;;4.50;;
44189;SDS011;29856;52.144;5.430;2023-10-08T11:18:49;5.28;;;4.28;;
44189;SDS011;29856;52.144;5.430;2023-10-08T11:21:15;7.90;;;4.55;;
44189;SDS011;29856;52.144;5.430;2023-10-08T11:23:44;8.63;;;4.30;;
44189;SDS011;29856;52.144;5.430;2023-10-08T11:26:10;6.38;;;5.22;;
44189;SDS011;29856;52.144;5.430;2023-10-08T11:28:39;7.05;;;4.57;;
44189;SDS011;29856;52.144;5.430;2023-10-08T11:31:07;5.65;;;4.50;;
44189;SDS011;29856;52.144;5.430;2023-10-08T11:33:36;5.18;;;4.57;;
44189;SDS011;29856;52.144;5.430;2023-10-08T11:36:03;6.15;;;4.53;;
44189;SDS011;29856;52.144;5.430;2023-10-08T11:38:39;6.65;;;4.63;;
44189;SDS011;29856;52.144;5.430;2023-10-08T11:41:11;7.13;;;4.22;;
44189;SDS011;29856;52.144;5.430;2023-10-08T11:43:38;6.43;;;4.30;;
44189;SDS011;29856;52.144;5.430;2023-10-08T11:46:03;4.88;;;4.38;;
44189;SDS011;29856;52.144;5.430;2023-10-08T11:48:29;5.32;;;4.22;;
44189;SDS011;29856;52.144;5.430;2023-10-08T11:50:54;5.45;;;4.65;;
44189;SDS011;29856;52.144;5.430;2023-10-08T11:53:20;4.45;;;4.05;;
44189;SDS011;29856;52.144;5.430;2023-10-08T11:55:45;6.47;;;4.15;;
44189;SDS011;29856;52.144;5.430;2023-10-08T11:58:11;5.53;;;4.10;;
44189;SDS011;29856;52.144;5.430;2023-10-08T12:00:37;4.28;;;3.55;;
44189;SDS011;29856;52.144;5.430;2023-10-08T12:03:03;6.45;;;4.35;;
44189;SDS011;29856;52.144;5.430;2023-10-08T12:05:29;5.47;;;4.05;;
44189;SDS011;29856;52.144;5.430;2023-10-08T12:07:54;6.03;;;3.40;;
44189;SDS011;29856;52.144;5.430;2023-10-08T12:10:20;4.60;;;3.60;;
44189;SDS011;29856;52.144;5.430;2023-10-08T12:12:45;5.03;;;2.88;;
44189;SDS011;29856;52.144;5.430;2023-10-08T12:15:11;7.68;;;3.20;;
44189;SDS011;29856;52.144;5.430;2023-10-08T12:17:36;7.45;;;3.20;;
44189;SDS011;29856;52.144;5.430;2023-10-08T12:20:02;4.88;;;2.83;;
44189;SDS011;29856;52.144;5.430;2023-10-08T12:22:28;5.68;;;2.92;;
44189;SDS011;29856;52.144;5.430;2023-10-08T12:24:54;4.55;;;3.03;;
44189;SDS011;29856;52.144;5.430;2023-10-08T12:27:20;11.55;;;3.53;;
44189;SDS011;29856;52.144;5.430;2023-10-08T12:29:45;4.78;;;2.80;;
44189;SDS011;29856;52.144;5.430;2023-10-08T12:32:11;4.50;;;2.97;;
44189;SDS011;29856;52.144;5.430;2023-10-08T12:34:36;6.65;;;3.35;;
44189;SDS011;29856;52.144;5.430;2023-10-08T12:37:02;6.60;;;3.00;;
44189;SDS011;29856;52.144;5.430;2023-10-08T12:39:27;8.65;;;3.10;;
44189;SDS011;29856;52.144;5.430;2023-10-08T12:41:52;7.30;;;3.38;;
44189;SDS011;29856;52.144;5.430;2023-10-08T12:44:18;5.57;;;3.17;;
44189;SDS011;29856;52.144;5.430;2023-10-08T12:46:43;6.68;;;3.17;;
44189;SDS011;29856;52.144;5.430;2023-10-08T12:49:09;5.57;;;2.92;;
44189;SDS011;29856;52.144;5.430;2023-10-08T12:51:34;5.13;;;3.10;;
44189;SDS011;29856;52.144;5.430;2023-10-08T12:54:00;5.40;;;2.83;;
44189;SDS011;29856;52.144;5.430;2023-10-08T12:56:26;5.82;;;2.65;;
44189;SDS011;29856;52.144;5.430;2023-10-08T12:58:52;6.60;;;2.83;;
44189;SDS011;29856;52.144;5.430;2023-10-08T13:01:17;6.40;;;2.60;;
44189;SDS011;29856;52.144;5.430;2023-10-08T13:03:43;5.10;;;2.60;;
44189;SDS011;29856;52.144;5.430;2023-10-08T13:06:10;4.57;;;2.63;;
44189;SDS011;29856;52.144;5.430;2023-10-08T13:08:44;3.33;;;2.38;;
44189;SDS011;29856;52.144;5.430;2023-10-08T13:11:09;10.10;;;2.28;;
44189;SDS011;29856;52.144;5.430;2023-10-08T13:13:35;3.05;;;2.00;;
44189;SDS011;29856;52.144;5.430;2023-10-08T13:16:00;5.93;;;1.63;;
44189;SDS011;29856;52.144;5.430;2023-10-08T13:18:26;5.05;;;1.80;;
44189;SDS011;29856;52.144;5.430;2023-10-08T13:20:52;6.63;;;1.92;;
44189;SDS011;29856;52.144;5.430;2023-10-08T13:23:17;5.25;;;2.03;;
44189;SDS011;29856;52.144;5.430;2023-10-08T13:25:43;5.55;;;1.58;;
44189;SDS011;29856;52.144;5.430;2023-10-08T13:28:09;4.57;;;2.08;;
44189;SDS011;29856;52.144;5.430;2023-10-08T13:30:34;3.63;;;1.55;;
44189;SDS011;29856;52.144;5.430;2023-10-08T13:33:00;5.07;;;1.90;;
44189;SDS011;29856;52.144;5.430;2023-10-08T13:35:25;4.78;;;1.95;;
44189;SDS011;29856;52.144;5.430;2023-10-08T13:37:51;4.93;;;2.00;;
44189;SDS011;29856;52.144;5.430;2023-10-08T13:40:16;4.78;;;2.22;;
44189;SDS011;29856;52.144;5.430;2023-10-08T13:42:42;5.47;;;2.15;;
44189;SDS011;29856;52.144;5.430;2023-10-08T13:45:08;6.07;;;2.28;;
44189;SDS011;29856;52.144;5.430;2023-10-08T13:47:34;8.43;;;2.38;;
44189;SDS011;29856;52.144;5.430;2023-10-08T13:50:00;5.70;;;2.15;;
44189;SDS011;29856;52.144;5.430;2023-10-08T13:52:25;7.00;;;2.30;;
44189;SDS011;29856;52.144;5.430;2023-10-08T13:54:51;5.45;;;2.13;;
44189;SDS011;29856;52.144;5.430;2023-10-08T13:57:20;7.82;;;2.50;;
44189;SDS011;29856;52.144;5.430;2023-10-08T13:59:46;7.45;;;2.75;;
44189;SDS011;29856;52.144;5.430;2023-10-08T14:02:12;7.40;;;2.63;;
44189;SDS011;29856;52.144;5.430;2023-10-08T14:04:38;11.82;;;2.47;;
44189;SDS011;29856;52.144;5.430;2023-10-08T14:07:04;6.75;;;2.42;;
44189;SDS011;29856;52.144;5.430;2023-10-08T14:09:29;4.45;;;2.30;;
44189;SDS011;29856;52.144;5.430;2023-10-08T14:11:55;5.82;;;2.42;;
44189;SDS011;29856;52.144;5.430;2023-10-08T14:14:20;5.88;;;2.50;;
44189;SDS011;29856;52.144;5.430;2023-10-08T14:16:46;4.30;;;2.28;;
44189;SDS011;29856;52.144;5.430;2023-10-08T14:19:11;7.63;;;2.38;;
44189;SDS011;29856;52.144;5.430;2023-10-08T14:21:38;4.95;;;2.50;;
44189;SDS011;29856;52.144;5.430;2023-10-08T14:24:04;4.78;;;2.60;;
44189;SDS011;29856;52.144;5.430;2023-10-08T14:26:30;7.78;;;2.63;;
44189;SDS011;29856;52.144;5.430;2023-10-08T14:28:56;5.55;;;2.92;;
44189;SDS011;29856;52.144;5.430;2023-10-08T14:31:21;5.72;;;2.47;;
44189;SDS011;29856;52.144;5.430;2023-10-08T14:33:47;3.90;;;2.40;;
44189;SDS011;29856;52.144;5.430;2023-10-08T14:36:14;5.82;;;2.72;;
44189;SDS011;29856;52.144;5.430;2023-10-08T14:38:39;6.97;;;2.88;;
44189;SDS011;29856;52.144;5.430;2023-10-08T14:41:05;5.18;;;2.70;;